TimeEST,TemperatureF,Dew PointF,Humidity,Sea Level PressureIn,VisibilityMPH,Wind Direction,Wind SpeedMPH,Gust SpeedMPH,PrecipitationIn,Events,Conditions,WindDirDegrees,DateUTC
12:53 AM,73.9,71.1,91,30.07,10.0,Calm,Calm,-,N/A,,Clear,0,2014-02-22 05:53:00
1:53 AM,73.0,70.0,90,30.06,10.0,Calm,Calm,-,N/A,,Clear,0,2014-02-22 06:53:00
2:53 AM,72.0,69.1,91,30.05,10.0,Calm,Calm,-,N/A,,Partly Cloudy,0,2014-02-22 07:53:00
3:53 AM,71.1,69.1,93,30.04,10.0,Calm,Calm,-,N/A,,Mostly Cloudy,0,2014-02-22 08:53:00
4:27 AM,71.6,69.8,94,30.04,10.0,Calm,Calm,-,N/A,,Scattered Clouds,0,2014-02-22 09:27:00
4:53 AM,70.0,69.1,97,30.05,10.0,Calm,Calm,-,N/A,,Partly Cloudy,0,2014-02-22 09:53:00
5:53 AM,70.0,68.0,93,30.06,10.0,Calm,Calm,-,N/A,,Clear,0,2014-02-22 10:53:00
6:53 AM,70.0,68.0,93,30.08,9.0,Calm,Calm,-,N/A,,Scattered Clouds,0,2014-02-22 11:53:00
7:53 AM,73.0,70.0,90,30.10,10.0,Calm,Calm,-,N/A,,Scattered Clouds,0,2014-02-22 12:53:00
8:53 AM,78.1,71.1,79,30.12,10.0,SSW,3.5,-,N/A,,Scattered Clouds,200,2014-02-22 13:53:00
9:53 AM,80.1,68.0,67,30.13,10.0,South,8.1,-,N/A,,Scattered Clouds,170,2014-02-22 14:53:00
10:53 AM,82.9,68.0,60,30.12,10.0,ESE,9.2,-,N/A,,Scattered Clouds,120,2014-02-22 15:53:00
11:53 AM,82.9,68.0,60,30.11,10.0,SE,6.9,-,N/A,,Partly Cloudy,140,2014-02-22 16:53:00
12:53 PM,84.9,66.9,55,30.08,10.0,ESE,10.4,-,N/A,,Scattered Clouds,120,2014-02-22 17:53:00
1:53 PM,84.0,66.9,56,30.04,10.0,SE,12.7,-,N/A,,Scattered Clouds,130,2014-02-22 18:53:00
2:53 PM,84.0,66.9,56,30.02,10.0,SSE,10.4,-,N/A,,Scattered Clouds,150,2014-02-22 19:53:00
3:53 PM,82.9,68.0,60,30.01,10.0,SSE,10.4,-,N/A,,Clear,150,2014-02-22 20:53:00
4:53 PM,82.0,66.9,60,30.01,10.0,SE,12.7,-,N/A,,Scattered Clouds,140,2014-02-22 21:53:00
5:53 PM,79.0,68.0,69,30.04,10.0,SE,9.2,-,N/A,,Scattered Clouds,140,2014-02-22 22:53:00
6:53 PM,77.0,69.1,76,30.04,10.0,SSE,5.8,-,N/A,,Scattered Clouds,150,2014-02-22 23:53:00
7:53 PM,77.0,70.0,79,30.06,10.0,SE,4.6,-,N/A,,Scattered Clouds,140,2014-02-23 00:53:00
8:53 PM,75.9,69.1,79,30.09,10.0,Calm,Calm,-,N/A,,Clear,0,2014-02-23 01:53:00
9:53 PM,75.9,69.1,79,30.10,10.0,NNW,4.6,-,N/A,,Partly Cloudy,340,2014-02-23 02:53:00
10:53 PM,73.9,68.0,82,30.11,10.0,Calm,Calm,-,N/A,,Scattered Clouds,0,2014-02-23 03:53:00
11:53 PM,73.0,68.0,84,30.09,10.0,Calm,Calm,-,N/A,,Partly Cloudy,0,2014-02-23 04:53:00